Time;durP1;ratioP1;P1;durP2;ratioP2;P2;SDS_P1;SDS_P2;PMS_P1;PMS_P2;Temp;Humidity;BMP_temperature;BMP_pressure;BME280_temperature;BME280_humidity;BME280_pressure;Samples;Min_cycle;Max_cycle;Signal;HPM_P1;HPM_P2
2022/01/08 00:00:56;;;;;;;5.78;3.85;;;4.60;99.90;;;;;;5034756;28;20029;-58
2022/01/08 00:03:21;;;;;;;7.22;3.72;;;4.90;99.90;;;;;;5034844;28;20437;-53
2022/01/08 00:05:48;;;;;;;5.88;3.25;;;5.00;99.90;;;;;;5034772;28;20018;-52
2022/01/08 00:08:14;;;;;;;7.47;3.92;;;5.10;99.90;;;;;;5017062;28;20071;-57
2022/01/08 00:10:40;;;;;;;3.65;2.20;;;5.10;99.90;;;;;;5016646;28;20484;-55
2022/01/08 00:13:07;;;;;;;4.38;2.80;;;5.20;99.90;;;;;;5034623;28;20033;-54
2022/01/08 00:15:57;;;;;;;3.75;2.60;;;5.30;99.90;;;;;;5017747;28;20048;-54
2022/01/08 00:18:23;;;;;;;3.55;2.45;;;5.20;99.90;;;;;;5013266;28;20030;-54
2022/01/08 00:20:49;;;;;;;6.20;2.25;;;5.20;99.90;;;;;;5029217;28;20033;-56
2022/01/08 00:23:17;;;;;;;8.98;2.22;;;5.20;99.90;;;;;;5016521;28;20021;-54
2022/01/08 00:25:42;;;;;;;4.70;1.83;;;5.20;99.90;;;;;;5007700;28;20026;-56
2022/01/08 00:28:08;;;;;;;4.45;1.60;;;5.20;99.90;;;;;;5014538;28;20028;-54
2022/01/08 00:33:56;;;;;;;5.68;2.50;;;5.20;99.90;;;;;;5041269;28;20060;-52
2022/01/08 00:36:22;;;;;;;4.50;2.65;;;4.90;99.90;;;;;;5034264;28;20026;-53
2022/01/08 00:38:47;;;;;;;7.18;3.40;;;4.80;99.90;;;;;;5032671;28;20028;-52
2022/01/08 00:41:13;;;;;;;6.95;3.15;;;4.60;99.90;;;;;;5013441;28;20030;-55
2022/01/08 00:43:39;;;;;;;7.82;3.08;;;4.40;99.90;;;;;;4997328;28;20025;-52
2022/01/08 00:46:04;;;;;;;4.57;2.85;;;4.40;99.90;;;;;;5032778;28;20059;-54
2022/01/08 00:48:30;;;;;;;3.97;2.78;;;4.40;99.90;;;;;;5037138;28;20100;-54
2022/01/08 00:50:56;;;;;;;5.53;2.63;;;4.50;99.90;;;;;;5033911;28;20108;-53
2022/01/08 00:53:22;;;;;;;4.63;2.50;;;4.50;99.90;;;;;;5030044;28;20037;-57
2022/01/08 00:55:49;;;;;;;12.20;5.38;;;4.70;99.90;;;;;;5036011;28;20029;-54
2022/01/08 00:58:15;;;;;;;5.97;2.78;;;4.70;99.90;;;;;;5034177;28;20034;-55
2022/01/08 01:00:43;;;;;;;13.48;5.53;;;4.80;99.90;;;;;;5015953;28;20029;-53
2022/01/08 01:03:09;;;;;;;7.65;2.90;;;4.70;99.90;;;;;;4996493;28;20022;-55
2022/01/08 01:06:16;;;;;;;7.20;2.63;;;4.70;99.90;;;;;;5012757;28;20022;-53
2022/01/08 01:08:42;;;;;;;1.52;0.88;;;4.70;99.90;;;;;;4996352;28;20021;-51
2022/01/08 01:11:08;;;;;;;2.70;1.00;;;4.80;99.90;;;;;;5014121;28;20017;-53
2022/01/08 01:13:33;;;;;;;6.93;1.23;;;4.70;99.90;;;;;;5034784;28;20027;-51
2022/01/08 01:16:01;;;;;;;1.90;0.82;;;4.70;99.90;;;;;;5017552;28;20029;-54
2022/01/08 01:21:48;;;;;;;3.58;1.52;;;4.70;99.90;;;;;;5034645;28;20037;-55
2022/01/08 01:24:18;;;;;;;2.80;1.42;;;4.60;99.90;;;;;;5034004;28;20014;-51
2022/01/08 01:30:14;;;;;;;2.25;1.52;;;4.40;99.90;;;;;;5033981;28;20053;-51
2022/01/08 01:46:59;;;;;;;5.15;2.70;;;4.40;99.90;;;;;;5034194;28;20037;-51
2022/01/08 01:48:54;;;;;;;5.05;2.60;;;4.20;99.90;;;;;;5033490;28;20024;-53
2022/01/08 01:51:22;;;;;;;4.20;2.13;;;4.00;99.90;;;;;;5033452;28;20395;-57
2022/01/08 01:53:48;;;;;;;6.30;2.58;;;4.00;99.90;;;;;;5033935;28;20034;-55
2022/01/08 01:56:18;;;;;;;4.00;2.00;;;3.90;99.90;;;;;;5015482;28;20052;-53
2022/01/08 01:58:46;;;;;;;2.42;1.67;;;3.80;99.90;;;;;;5015452;28;20025;-53
2022/01/08 02:01:16;;;;;;;4.35;2.10;;;3.70;99.90;;;;;;5015326;28;20021;-55
2022/01/08 02:03:43;;;;;;;3.03;1.58;;;3.60;99.90;;;;;;5016160;28;20044;-54
2022/01/08 02:06:09;;;;;;;1.88;1.60;;;3.70;99.90;;;;;;5033325;28;20021;-56
2022/01/08 02:08:37;;;;;;;4.00;1.83;;;3.70;99.90;;;;;;5015472;28;20109;-53
2022/01/08 02:11:03;;;;;;;5.68;2.50;;;3.80;99.90;;;;;;5015709;28;20097;-51
2022/01/08 02:13:29;;;;;;;6.95;2.67;;;3.70;99.90;;;;;;5033176;28;20100;-54
2022/01/08 02:15:55;;;;;;;10.27;4.07;;;3.70;99.90;;;;;;5015729;28;20025;-52
2022/01/08 02:18:25;;;;;;;8.63;3.25;;;3.60;99.90;;;;;;5015465;28;20026;-53
2022/01/08 02:20:51;;;;;;;7.22;3.35;;;3.60;99.90;;;;;;5017445;28;20028;-52
2022/01/08 02:23:17;;;;;;;6.90;3.13;;;3.60;99.90;;;;;;5037598;28;20025;-51
2022/01/08 02:25:43;;;;;;;6.88;2.88;;;3.70;99.90;;;;;;5037006;28;20022;-51
2022/01/08 02:28:08;;;;;;;4.47;3.10;;;3.80;99.90;;;;;;5037029;28;20103;-57
2022/01/08 02:30:34;;;;;;;4.50;2.75;;;3.80;99.90;;;;;;5019904;28;20064;-57
2022/01/08 02:33:00;;;;;;;4.07;2.53;;;3.90;99.90;;;;;;5036076;28;20041;-51
2022/01/08 02:35:26;;;;;;;3.92;2.60;;;3.90;99.90;;;;;;5036919;28;20042;-53
2022/01/08 02:37:53;;;;;;;5.18;2.50;;;3.90;99.90;;;;;;5019908;28;20099;-52
2022/01/08 02:40:20;;;;;;;5.95;2.83;;;4.00;99.90;;;;;;5037272;28;20036;-53
2022/01/08 02:43:02;;;;;;;5.90;2.85;;;4.10;99.90;;;;;;5019287;28;20022;-51
2022/01/08 02:45:39;;;;;;;3.75;2.40;;;4.10;99.90;;;;;;5039502;28;20022;-51
2022/01/08 02:48:04;;;;;;;5.43;2.70;;;4.20;99.90;;;;;;5038874;28;20025;-55
2022/01/08 02:50:30;;;;;;;3.25;2.45;;;4.10;99.90;;;;;;5039292;28;20071;-51
2022/01/08 02:52:56;;;;;;;3.85;2.30;;;4.20;99.90;;;;;;5039166;28;20487;-56
2022/01/08 02:55:21;;;;;;;4.75;2.63;;;4.20;99.90;;;;;;5039222;28;20032;-52
2022/01/08 02:57:47;;;;;;;5.68;3.42;;;4.20;99.90;;;;;;5038839;28;20029;-54
2022/01/08 03:00:16;;;;;;;3.70;2.22;;;4.10;99.90;;;;;;5039355;28;20387;-53
2022/01/08 03:02:44;;;;;;;6.55;3.35;;;4.10;99.90;;;;;;5057052;28;20495;-53
2022/01/08 03:05:13;;;;;;;7.50;3.55;;;4.00;99.90;;;;;;5057066;28;20021;-54
2022/01/08 03:07:40;;;;;;;5.18;2.83;;;4.00;99.90;;;;;;5039212;28;20024;-55
2022/01/08 03:10:07;;;;;;;7.40;3.25;;;4.00;99.90;;;;;;5039308;28;20102;-55
2022/01/08 03:12:33;;;;;;;5.25;3.00;;;4.00;99.90;;;;;;5039013;28;20025;-54
2022/01/08 03:14:59;;;;;;;3.97;2.25;;;4.00;99.90;;;;;;5056680;28;20021;-56
2022/01/08 03:17:25;;;;;;;3.15;1.80;;;4.00;99.90;;;;;;5038759;28;20031;-55
2022/01/08 03:19:52;;;;;;;4.85;2.35;;;4.00;99.90;;;;;;5038812;28;20112;-56
2022/01/08 03:22:19;;;;;;;3.83;2.03;;;4.00;99.90;;;;;;5056845;28;20013;-57
2022/01/08 03:24:44;;;;;;;3.50;1.58;;;4.00;99.90;;;;;;5038918;28;20055;-55
2022/01/08 03:27:11;;;;;;;3.63;1.77;;;3.90;99.90;;;;;;5039291;28;20021;-56
2022/01/08 03:29:37;;;;;;;3.78;1.88;;;3.90;99.90;;;;;;5056990;28;20036;-55
2022/01/08 03:32:03;;;;;;;4.47;2.05;;;3.70;99.90;;;;;;5056028;28;20032;-55
2022/01/08 03:34:28;;;;;;;5.28;2.45;;;3.60;99.90;;;;;;5038641;28;20090;-55
2022/01/08 03:36:54;;;;;;;3.78;2.60;;;3.50;99.90;;;;;;5056568;28;20021;-55
2022/01/08 03:39:21;;;;;;;3.35;2.40;;;3.40;99.90;;;;;;5038894;28;20025;-56
2022/01/08 03:41:47;;;;;;;4.07;2.65;;;3.30;99.90;;;;;;5038645;28;20025;-54
2022/01/08 03:44:13;;;;;;;6.20;3.67;;;3.30;99.90;;;;;;5038987;28;20021;-53
2022/01/08 03:46:39;;;;;;;4.63;2.65;;;3.30;99.90;;;;;;5039263;28;20029;-53
2022/01/08 03:49:23;;;;;;;4.65;2.72;;;3.20;99.90;;;;;;5039581;28;20021;-57
2022/01/08 03:51:50;;;;;;;4.28;2.45;;;3.00;99.90;;;;;;5057018;28;20047;-51
2022/01/08 03:54:16;;;;;;;3.88;2.45;;;3.00;99.90;;;;;;5039005;28;20092;-54
2022/01/08 03:56:42;;;;;;;3.40;2.22;;;3.10;99.90;;;;;;5038865;28;20112;-51
2022/01/08 03:59:07;;;;;;;4.28;2.58;;;3.10;99.90;;;;;;5039244;28;20017;-54
2022/01/08 04:01:33;;;;;;;4.30;2.67;;;3.20;99.90;;;;;;5038885;28;20104;-52
2022/01/08 04:03:58;;;;;;;3.90;2.35;;;3.20;99.90;;;;;;5056820;28;20360;-53
2022/01/08 04:06:24;;;;;;;5.38;2.83;;;3.30;99.90;;;;;;5039693;28;20024;-52
2022/01/08 04:08:56;;;;;;;6.45;3.20;;;3.40;99.90;;;;;;5038699;28;20025;-54
2022/01/08 04:11:22;;;;;;;5.13;2.88;;;3.50;99.90;;;;;;5038909;28;20033;-51
2022/01/08 04:13:48;;;;;;;5.35;2.83;;;3.50;99.90;;;;;;5056681;28;20028;-57
2022/01/08 04:16:19;;;;;;;7.38;3.42;;;3.60;99.90;;;;;;5039392;28;20021;-53
2022/01/08 04:18:44;;;;;;;6.65;3.15;;;3.60;99.90;;;;;;5038833;28;20032;-58
2022/01/08 04:23:51;;;;;;;7.70;4.05;;;3.60;99.90;;;;;;5056638;28;20021;-57
2022/01/08 04:26:17;;;;;;;4.72;2.63;;;3.60;99.90;;;;;;5056614;28;20379;-54
2022/01/08 04:28:43;;;;;;;5.07;2.95;;;3.60;99.90;;;;;;5038884;28;20025;-54
2022/01/08 04:31:08;;;;;;;9.00;3.65;;;3.70;99.90;;;;;;5057221;28;20064;-53
2022/01/08 04:33:34;;;;;;;6.43;3.38;;;3.60;99.90;;;;;;5038884;28;20035;-52
2022/01/08 04:35:59;;;;;;;7.18;4.00;;;3.40;99.90;;;;;;5038440;28;20025;-53
2022/01/08 04:38:25;;;;;;;8.13;3.58;;;3.40;99.90;;;;;;5038019;28;20032;-55
2022/01/08 04:40:51;;;;;;;5.97;3.42;;;3.30;99.90;;;;;;5038950;28;20023;-55
2022/01/08 04:43:17;;;;;;;8.43;3.53;;;3.30;99.90;;;;;;5037806;28;20021;-55
2022/01/08 04:45:43;;;;;;;9.32;4.00;;;3.30;99.90;;;;;;5038471;28;20017;-55
2022/01/08 04:48:09;;;;;;;7.03;3.40;;;3.50;99.90;;;;;;5038060;28;20017;-54
2022/01/08 04:50:34;;;;;;;8.68;3.60;;;3.50;99.90;;;;;;5039015;28;20037;-52
2022/01/08 04:53:00;;;;;;;8.80;3.47;;;3.50;99.90;;;;;;5038157;28;20029;-54
2022/01/08 04:55:26;;;;;;;6.55;3.00;;;3.50;99.90;;;;;;5038539;28;20035;-54
2022/01/08 04:57:52;;;;;;;8.20;2.97;;;3.50;99.90;;;;;;5037984;28;20045;-57
2022/01/08 05:00:19;;;;;;;7.75;3.28;;;3.70;99.90;;;;;;5038529;28;20031;-55
2022/01/08 05:02:46;;;;;;;8.40;3.40;;;3.70;99.90;;;;;;5038215;28;20518;-54
2022/01/08 05:05:11;;;;;;;10.05;3.78;;;3.70;99.90;;;;;;5038489;28;20027;-56
2022/01/08 05:07:38;;;;;;;8.68;4.20;;;3.70;99.90;;;;;;5038200;28;20108;-55
2022/01/08 05:10:04;;;;;;;7.53;3.63;;;3.80;99.90;;;;;;5038478;28;20025;-55
2022/01/08 05:12:30;;;;;;;9.60;4.10;;;3.70;99.90;;;;;;5056713;28;20029;-54
2022/01/08 05:14:56;;;;;;;12.60;4.75;;;3.70;99.90;;;;;;5056687;28;20036;-54
2022/01/08 05:17:29;;;;;;;8.77;4.07;;;3.70;99.90;;;;;;5038360;28;20391;-57
2022/01/08 05:19:57;;;;;;;8.23;4.10;;;3.70;99.90;;;;;;5038442;28;20029;-57
2022/01/08 05:22:28;;;;;;;8.75;4.28;;;3.80;99.90;;;;;;5039307;28;20021;-56
2022/01/08 05:24:55;;;;;;;6.05;3.10;;;3.80;99.90;;;;;;5038355;28;20021;-56
2022/01/08 05:27:22;;;;;;;7.18;3.20;;;3.70;99.90;;;;;;5037767;28;20056;-54
2022/01/08 05:29:49;;;;;;;7.97;4.20;;;3.70;99.90;;;;;;5055511;28;20040;-54
2022/01/08 05:32:18;;;;;;;7.75;3.25;;;3.60;99.90;;;;;;5037964;28;20094;-54
2022/01/08 05:34:45;;;;;;;7.97;2.90;;;3.70;99.90;;;;;;5037519;28;20024;-53
2022/01/08 05:37:12;;;;;;;8.35;3.35;;;3.60;99.90;;;;;;5055239;28;20025;-57
2022/01/08 05:39:38;;;;;;;5.05;2.80;;;3.60;99.90;;;;;;5038047;28;20028;-54
2022/01/08 05:42:04;;;;;;;6.55;2.88;;;3.50;99.90;;;;;;5038131;28;20029;-55
2022/01/08 05:44:30;;;;;;;6.25;3.97;;;3.50;99.90;;;;;;5055393;28;20029;-51
2022/01/08 05:46:55;;;;;;;3.28;2.20;;;3.50;99.90;;;;;;5037657;28;20032;-54
2022/01/08 05:49:21;;;;;;;6.10;2.17;;;3.50;99.90;;;;;;5037805;28;20031;-53
2022/01/08 05:51:46;;;;;;;5.75;2.28;;;3.50;99.90;;;;;;5018744;28;20112;-53
2022/01/08 05:54:12;;;;;;;11.32;4.40;;;3.40;99.90;;;;;;5018147;28;20468;-55
2022/01/08 05:56:38;;;;;;;4.50;2.55;;;3.30;99.90;;;;;;5020474;28;20022;-54
2022/01/08 05:59:04;;;;;;;6.07;2.35;;;3.20;99.90;;;;;;5039519;28;20486;-55
2022/01/08 06:01:31;;;;;;;8.35;3.67;;;3.10;99.90;;;;;;5021765;28;20025;-52
2022/01/08 06:03:57;;;;;;;5.18;2.63;;;3.10;99.90;;;;;;5021836;28;20022;-56
2022/01/08 06:06:22;;;;;;;5.38;2.63;;;3.10;99.90;;;;;;5021658;28;20036;-57
2022/01/08 06:08:48;;;;;;;5.65;2.50;;;3.10;99.90;;;;;;5021336;28;20025;-57
2022/01/08 06:11:14;;;;;;;5.95;3.53;;;3.10;99.90;;;;;;5021788;28;20078;-55
2022/01/08 06:13:39;;;;;;;9.68;4.47;;;3.10;99.90;;;;;;5021638;28;20022;-54
2022/01/08 06:16:05;;;;;;;8.70;4.68;;;3.00;99.90;;;;;;5022018;28;20379;-54
2022/01/08 06:18:33;;;;;;;8.20;4.05;;;3.00;99.90;;;;;;5017993;28;20101;-54
2022/01/08 06:20:59;;;;;;;10.25;3.92;;;2.90;99.90;;;;;;5018843;28;20026;-53
2022/01/08 06:23:27;;;;;;;5.32;2.50;;;2.90;99.90;;;;;;5001895;28;20052;-54
2022/01/08 06:25:53;;;;;;;6.50;3.58;;;2.80;99.90;;;;;;5001515;28;20022;-53
2022/01/08 06:28:18;;;;;;;4.65;2.75;;;2.80;99.90;;;;;;5000917;28;20044;-53
2022/01/08 06:30:44;;;;;;;7.10;1.88;;;2.70;99.90;;;;;;5001590;28;20121;-54
2022/01/08 06:33:10;;;;;;;4.03;2.67;;;2.80;99.90;;;;;;5018529;28;20113;-56
2022/01/08 06:35:36;;;;;;;3.08;1.92;;;2.80;99.90;;;;;;5001426;28;20058;-54
2022/01/08 06:38:01;;;;;;;9.27;2.60;;;2.70;99.90;;;;;;5018823;28;20468;-52
2022/01/08 06:40:27;;;;;;;8.65;2.72;;;2.70;99.90;;;;;;5018576;28;20059;-54
2022/01/08 06:42:52;;;;;;;4.35;2.60;;;2.70;99.90;;;;;;5000644;28;20022;-58
2022/01/08 06:45:18;;;;;;;6.72;2.53;;;2.60;99.90;;;;;;5000901;28;20047;-54
2022/01/08 06:47:45;;;;;;;6.97;3.70;;;2.60;99.90;;;;;;5001077;28;20022;-53
2022/01/08 06:50:12;;;;;;;4.38;2.47;;;2.60;99.90;;;;;;5000539;28;20061;-53
2022/01/08 06:52:38;;;;;;;7.57;2.45;;;2.70;99.90;;;;;;5018033;28;20026;-56
2022/01/08 06:55:04;;;;;;;7.47;2.40;;;2.80;99.90;;;;;;5001509;28;20030;-54
2022/01/08 06:57:30;;;;;;;6.50;3.30;;;2.90;99.90;;;;;;5014121;28;20029;-53
2022/01/08 06:59:55;;;;;;;5.35;3.08;;;3.10;99.90;;;;;;5038385;28;20029;-56
2022/01/08 07:02:21;;;;;;;6.30;3.03;;;3.20;99.90;;;;;;5020200;28;20025;-54
2022/01/08 07:04:46;;;;;;;6.82;3.22;;;3.30;99.90;;;;;;5038058;28;20032;-54
2022/01/08 07:07:12;;;;;;;5.30;2.95;;;3.30;99.90;;;;;;5020465;28;20029;-54
2022/01/08 07:09:38;;;;;;;4.28;2.70;;;3.20;99.90;;;;;;5037539;28;20041;-56
2022/01/08 07:12:04;;;;;;;4.68;2.33;;;3.30;99.90;;;;;;5019435;28;20022;-56
2022/01/08 07:14:29;;;;;;;7.85;2.60;;;3.20;99.90;;;;;;5020133;28;20022;-55
2022/01/08 07:16:55;;;;;;;7.43;2.53;;;3.20;99.90;;;;;;5020279;28;20022;-57
2022/01/08 07:19:21;;;;;;;3.88;2.28;;;3.10;99.90;;;;;;5019028;28;20104;-53
2022/01/08 07:21:46;;;;;;;6.57;2.05;;;2.90;99.90;;;;;;5019505;28;20060;-55
2022/01/08 07:24:12;;;;;;;6.88;2.70;;;3.00;99.90;;;;;;5037073;28;20097;-51
2022/01/08 07:26:38;;;;;;;2.95;1.90;;;2.90;99.90;;;;;;5037136;28;20060;-54
2022/01/08 07:29:03;;;;;;;3.58;1.90;;;2.90;99.90;;;;;;5037118;28;20092;-53
2022/01/08 07:31:29;;;;;;;6.32;2.35;;;3.00;99.90;;;;;;5019388;28;20032;-52
2022/01/08 07:33:54;;;;;;;7.07;2.78;;;3.10;99.90;;;;;;5020602;28;20057;-57
2022/01/08 07:36:20;;;;;;;5.70;2.63;;;3.30;99.90;;;;;;5019101;28;20029;-56
2022/01/08 07:38:47;;;;;;;7.10;2.45;;;3.30;99.90;;;;;;5018982;28;20029;-54
2022/01/08 07:41:13;;;;;;;9.15;2.90;;;3.30;99.90;;;;;;5018787;28;20030;-54
2022/01/08 07:43:39;;;;;;;6.40;2.60;;;3.30;99.90;;;;;;5018968;28;20032;-57
2022/01/08 07:46:05;;;;;;;7.45;3.25;;;3.40;99.90;;;;;;5036985;28;20075;-57
2022/01/08 07:48:31;;;;;;;7.47;2.50;;;3.40;99.90;;;;;;5019143;28;20026;-56
2022/01/08 07:50:57;;;;;;;11.43;2.55;;;3.40;99.90;;;;;;5019359;28;20029;-57
2022/01/08 07:53:22;;;;;;;4.35;2.67;;;3.50;99.90;;;;;;5037074;28;20026;-55
2022/01/08 07:55:48;;;;;;;7.32;2.55;;;3.50;99.90;;;;;;5019463;28;20036;-53
2022/01/08 07:58:13;;;;;;;6.88;2.78;;;3.60;99.90;;;;;;5018909;28;20061;-55
2022/01/08 08:00:39;;;;;;;4.60;2.38;;;3.70;99.90;;;;;;5037086;28;20052;-52
2022/01/08 08:03:05;;;;;;;7.00;2.63;;;3.60;99.90;;;;;;5019596;28;20030;-56
2022/01/08 08:05:31;;;;;;;7.40;2.60;;;3.60;99.90;;;;;;5002521;28;20021;-53
2022/01/08 08:07:57;;;;;;;9.38;3.25;;;3.60;99.90;;;;;;5036138;28;20067;-55
2022/01/08 08:10:25;;;;;;;7.10;3.00;;;3.60;99.90;;;;;;5036563;28;20029;-54
2022/01/08 08:12:53;;;;;;;7.75;3.15;;;3.50;99.90;;;;;;5036120;28;20045;-54
2022/01/08 08:15:20;;;;;;;12.90;4.55;;;3.50;99.90;;;;;;5018796;28;20029;-56
2022/01/08 08:17:46;;;;;;;10.77;4.25;;;3.50;99.90;;;;;;5019146;28;20159;-53
2022/01/08 08:20:12;;;;;;;6.07;4.38;;;3.60;99.90;;;;;;5018061;28;20061;-53
2022/01/08 08:22:39;;;;;;;6.68;4.22;;;3.70;99.90;;;;;;5018192;28;20030;-56
2022/01/08 08:25:07;;;;;;;14.30;5.43;;;3.80;99.90;;;;;;5018601;28;20102;-54
2022/01/08 08:27:33;;;;;;;10.35;6.35;;;3.90;99.90;;;;;;5018266;28;20094;-55
2022/01/08 08:29:59;;;;;;;13.63;7.20;;;4.00;99.90;;;;;;5036274;28;20073;-58
2022/01/08 08:32:25;;;;;;;6.68;5.57;;;4.00;99.90;;;;;;5036177;28;20018;-52
2022/01/08 08:34:53;;;;;;;10.82;4.20;;;4.10;99.90;;;;;;5036599;28;20029;-57
2022/01/08 08:37:19;;;;;;;7.88;4.40;;;4.20;99.90;;;;;;5035880;28;20045;-53
2022/01/08 08:39:45;;;;;;;7.22;5.18;;;4.30;99.90;;;;;;5035392;28;20070;-56
2022/01/08 08:42:10;;;;;;;9.23;6.15;;;4.20;99.90;;;;;;5035754;28;20025;-57
2022/01/08 08:44:36;;;;;;;17.52;6.35;;;4.10;99.90;;;;;;5017911;28;20024;-53
2022/01/08 08:47:03;;;;;;;15.32;6.60;;;4.20;99.90;;;;;;5035625;28;20070;-55
2022/01/08 08:49:29;;;;;;;13.82;6.40;;;4.20;99.90;;;;;;5018149;28;20022;-55
2022/01/08 08:51:55;;;;;;;21.85;11.77;;;4.50;99.90;;;;;;5036454;28;20024;-57
2022/01/08 08:54:21;;;;;;;22.55;10.20;;;5.20;99.90;;;;;;5018429;28;20044;-54
2022/01/08 08:56:46;;;;;;;23.95;8.45;;;5.50;99.90;;;;;;5036421;28;20026;-56
2022/01/08 08:59:12;;;;;;;23.30;10.00;;;5.70;99.90;;;;;;5018213;28;20060;-55
2022/01/08 09:01:38;;;;;;;19.63;9.43;;;5.80;99.90;;;;;;5017821;28;20032;-55
2022/01/08 09:04:04;;;;;;;14.07;7.07;;;6.60;99.90;;;;;;5035396;28;20032;-54
2022/01/08 09:06:30;;;;;;;9.43;5.55;;;7.50;99.90;;;;;;5017616;28;20029;-54
2022/01/08 09:08:56;;;;;;;13.10;7.03;;;8.50;99.90;;;;;;5034486;28;20108;-50
2022/01/08 09:11:22;;;;;;;11.15;6.82;;;8.90;99.90;;;;;;5034175;28;20064;-51
2022/01/08 09:13:48;;;;;;;20.30;10.57;;;9.30;99.90;;;;;;5033705;28;20043;-54
2022/01/08 09:16:14;;;;;;;13.00;6.72;;;9.70;99.90;;;;;;5016422;28;20029;-56
2022/01/08 09:18:41;;;;;;;9.95;6.20;;;10.10;99.90;;;;;;5016506;28;20030;-53
2022/01/08 09:21:07;;;;;;;30.95;12.75;;;10.70;99.90;;;;;;5016895;28;20040;-55
2022/01/08 09:23:33;;;;;;;13.10;8.50;;;11.00;99.90;;;;;;5016728;28;20084;-47
2022/01/08 09:26:01;;;;;;;15.70;7.13;;;11.30;99.90;;;;;;5033824;28;20065;-49
2022/01/08 09:28:27;;;;;;;12.73;6.57;;;11.30;99.90;;;;;;5015670;28;20021;-47
2022/01/08 09:30:54;;;;;;;9.57;5.53;;;11.50;99.90;;;;;;5032785;28;20128;-46
2022/01/08 09:33:20;;;;;;;12.25;5.80;;;12.00;99.90;;;;;;5015643;28;20079;-47
2022/01/08 09:35:46;;;;;;;12.52;6.80;;;12.00;99.90;;;;;;5016694;28;20022;-50
2022/01/08 09:38:12;;;;;;;9.93;6.05;;;11.20;99.90;;;;;;5015682;28;20075;-49
2022/01/08 09:40:37;;;;;;;15.20;6.78;;;10.90;99.90;;;;;;5016761;28;20123;-47
2022/01/08 09:43:04;;;;;;;15.75;7.22;;;10.50;99.90;;;;;;5013581;28;20102;-48
2022/01/08 09:45:30;;;;;;;13.70;6.75;;;10.20;99.90;;;;;;5013575;28;20021;-47
2022/01/08 09:47:56;;;;;;;9.43;4.93;;;10.50;99.90;;;;;;5012400;28;20057;-47
2022/01/08 09:50:21;;;;;;;14.48;6.82;;;10.80;99.90;;;;;;5012309;28;20030;-46
2022/01/08 09:52:47;;;;;;;11.40;6.68;;;11.20;99.90;;;;;;4995808;28;20030;-46
2022/01/08 09:55:13;;;;;;;10.32;6.68;;;10.80;99.90;;;;;;5013438;28;20022;-49
2022/01/08 09:57:39;;;;;;;15.15;8.55;;;10.20;99.90;;;;;;5006423;28;20113;-48
2022/01/08 10:00:13;;;;;;;12.38;7.25;;;9.70;99.90;;;;;;5013837;28;20053;-48
2022/01/08 10:02:38;;;;;;;12.48;6.15;;;9.00;99.90;;;;;;5015758;28;20048;-49
2022/01/08 10:08:29;;;;;;;22.98;10.23;;;8.00;99.90;;;;;;5013684;28;20029;-46
2022/01/08 10:11:03;;;;;;;32.35;14.70;;;7.70;99.90;;;;;;4995636;28;20029;-46
2022/01/08 10:13:41;;;;;;;41.45;20.13;;;7.80;99.90;;;;;;4995743;28;20051;-47
2022/01/08 10:18:56;;;;;;;14.45;6.00;;;8.00;99.90;;;;;;5013280;28;20053;-48
2022/01/08 10:21:24;;;;;;;19.27;7.45;;;8.00;99.90;;;;;;5013103;28;20029;-49
2022/01/08 10:24:05;;;;;;;18.77;8.13;;;8.20;99.90;;;;;;5011965;28;20065;-47
2022/01/08 10:26:34;;;;;;;23.67;11.27;;;8.20;99.90;;;;;;5013325;28;20030;-47
2022/01/08 10:29:02;;;;;;;30.90;13.40;;;7.70;99.90;;;;;;4998206;28;20292;-47
2022/01/08 10:31:33;;;;;;;25.55;10.35;;;7.50;99.90;;;;;;5019667;28;20028;-47
2022/01/08 10:34:02;;;;;;;19.67;8.32;;;7.60;99.90;;;;;;5015217;28;20029;-46
2022/01/08 10:36:33;;;;;;;15.73;6.55;;;7.60;99.90;;;;;;5008611;28;20038;-48
2022/01/08 10:39:02;;;;;;;19.90;6.25;;;7.80;99.90;;;;;;5012976;28;20025;-49
2022/01/08 10:41:28;;;;;;;22.73;7.75;;;7.50;99.90;;;;;;5012501;28;20037;-48
2022/01/08 10:44:12;;;;;;;28.05;11.65;;;7.30;99.90;;;;;;5016674;28;20029;-49
2022/01/08 10:46:39;;;;;;;20.38;8.73;;;7.10;99.90;;;;;;4999866;28;20053;-47
2022/01/08 10:49:05;;;;;;;12.43;4.90;;;7.00;99.90;;;;;;5020889;28;20068;-51
2022/01/08 10:51:37;;;;;;;13.10;4.88;;;6.90;99.90;;;;;;5036212;28;20029;-49
2022/01/08 10:54:09;;;;;;;10.60;4.55;;;6.80;99.90;;;;;;5035616;28;20388;-48
2022/01/08 10:57:00;;;;;;;13.35;5.53;;;6.80;99.90;;;;;;5018714;28;20048;-52
2022/01/08 10:59:27;;;;;;;14.85;4.45;;;6.70;99.90;;;;;;5018270;28;20033;-49
2022/01/08 11:01:54;;;;;;;12.63;4.00;;;6.70;99.90;;;;;;5018525;28;20112;-48
2022/01/08 11:04:36;;;;;;;6.38;2.97;;;6.60;99.90;;;;;;5035991;28;20033;-49
2022/01/08 11:07:15;;;;;;;6.30;2.92;;;6.60;99.90;;;;;;5046663;28;20498;-48
2022/01/08 11:09:43;;;;;;;14.70;4.70;;;6.50;99.90;;;;;;5020978;28;20361;-48
2022/01/08 11:12:19;;;;;;;10.38;2.88;;;6.60;99.90;;;;;;5018654;28;20491;-50
2022/01/08 11:17:26;;;;;;;10.40;3.03;;;6.60;99.90;;;;;;5036089;28;20041;-50
2022/01/08 11:19:54;;;;;;;6.53;2.50;;;6.50;99.90;;;;;;5018705;28;20120;-53
2022/01/08 11:22:22;;;;;;;9.93;2.63;;;6.60;99.90;;;;;;5035632;28;20018;-53
2022/01/08 11:25:08;;;;;;;10.60;3.22;;;6.60;99.90;;;;;;5018227;28;20029;-53
2022/01/08 11:27:41;;;;;;;8.77;4.00;;;6.50;99.90;;;;;;5051411;28;20032;-52
2022/01/08 11:30:15;;;;;;;7.47;3.38;;;6.50;99.90;;;;;;5033124;28;20034;-50
2022/01/08 11:33:04;;;;;;;10.70;3.88;;;6.50;99.90;;;;;;5018732;28;20120;-50
2022/01/08 11:35:32;;;;;;;9.15;3.70;;;6.50;99.90;;;;;;5043262;28;20024;-49
2022/01/08 11:38:03;;;;;;;9.32;2.60;;;6.50;99.90;;;;;;5048037;28;20060;-50
2022/01/08 11:40:29;;;;;;;9.77;3.05;;;6.50;99.90;;;;;;5037345;28;20025;-50
2022/01/08 11:42:59;;;;;;;9.27;3.35;;;6.50;99.90;;;;;;5055491;28;20021;-49
2022/01/08 11:45:34;;;;;;;10.77;2.92;;;6.80;99.90;;;;;;5037476;28;20018;-49
2022/01/08 11:48:04;;;;;;;13.02;4.80;;;6.90;99.90;;;;;;5055064;28;20041;-49
2022/01/08 11:50:31;;;;;;;8.13;3.33;;;6.80;99.90;;;;;;5055147;28;20027;-49
2022/01/08 11:53:19;;;;;;;5.18;2.25;;;6.90;99.90;;;;;;5036790;28;20025;-53
2022/01/08 11:56:05;;;;;;;12.65;3.00;;;7.10;99.90;;;;;;5055092;28;20033;-50
2022/01/08 11:58:33;;;;;;;9.57;2.13;;;7.10;99.90;;;;;;5055164;28;20025;-50
2022/01/08 12:01:10;;;;;;;6.25;2.90;;;7.30;99.90;;;;;;5036862;28;20036;-48
2022/01/08 12:03:39;;;;;;;7.45;2.03;;;7.50;99.90;;;;;;5054913;28;20021;-48
2022/01/08 12:11:41;;;;;;;10.45;3.45;;;7.60;99.90;;;;;;5054712;28;20021;-50
2022/01/08 12:14:14;;;;;;;7.35;2.33;;;7.30;99.90;;;;;;5054633;28;20519;-50
2022/01/08 12:17:01;;;;;;;8.60;2.90;;;7.20;99.90;;;;;;5037724;28;20021;-50
2022/01/08 12:19:31;;;;;;;6.72;3.38;;;7.10;99.90;;;;;;5026353;28;20036;-49
2022/01/08 12:21:58;;;;;;;5.88;2.88;;;7.10;99.90;;;;;;5036889;28;20029;-48
2022/01/08 12:24:27;;;;;;;7.40;3.05;;;7.00;99.90;;;;;;5054383;28;20036;-50
2022/01/08 12:26:58;;;;;;;4.78;2.17;;;7.00;99.90;;;;;;5036600;28;20068;-47
2022/01/08 12:29:40;;;;;;;9.40;2.55;;;7.20;99.90;;;;;;5054226;28;20063;-50
2022/01/08 12:32:36;;;;;;;9.88;2.13;;;7.20;99.90;;;;;;5037375;28;20061;-49
2022/01/08 12:35:26;;;;;;;5.63;1.70;;;7.30;99.90;;;;;;5024198;28;20561;-49
2022/01/08 12:37:53;;;;;;;7.03;2.30;;;7.60;99.90;;;;;;5036482;28;20094;-46
2022/01/08 12:40:43;;;;;;;5.75;1.60;;;7.50;99.90;;;;;;5054651;28;20055;-49
2022/01/08 12:43:30;;;;;;;5.00;1.50;;;7.60;99.90;;;;;;5054286;28;20017;-51
2022/01/08 12:46:14;;;;;;;5.03;1.55;;;7.60;99.90;;;;;;5054316;28;20100;-53
2022/01/08 12:49:03;;;;;;;9.68;2.72;;;7.50;99.90;;;;;;5036225;28;20021;-52
2022/01/08 12:51:51;;;;;;;8.35;2.47;;;7.60;99.90;;;;;;5050712;28;20038;-51
2022/01/08 12:54:18;;;;;;;5.88;2.20;;;7.50;99.90;;;;;;5050962;28;20025;-54
2022/01/08 12:56:55;;;;;;;5.45;1.80;;;7.30;99.90;;;;;;5054090;28;20029;-50
2022/01/08 12:59:28;;;;;;;5.28;2.17;;;7.30;99.90;;;;;;5054225;28;20036;-51
2022/01/08 13:01:54;;;;;;;8.82;1.98;;;7.10;99.90;;;;;;5036949;28;20131;-52
2022/01/08 13:04:22;;;;;;;2.95;2.00;;;7.40;99.90;;;;;;5035801;28;20104;-51
2022/01/08 13:06:48;;;;;;;3.08;1.80;;;7.40;99.90;;;;;;5053881;28;20021;-53
2022/01/08 13:09:14;;;;;;;5.18;2.17;;;7.70;99.90;;;;;;5053805;28;20021;-50
2022/01/08 13:11:42;;;;;;;6.38;2.05;;;7.90;99.90;;;;;;5036130;28;20021;-49
2022/01/08 13:14:10;;;;;;;3.35;2.00;;;8.10;99.90;;;;;;5054201;28;20032;-50
2022/01/08 13:16:42;;;;;;;5.90;2.00;;;8.50;99.90;;;;;;5036862;28;20025;-48
2022/01/08 13:19:09;;;;;;;3.40;1.40;;;8.50;99.90;;;;;;5036464;28;20060;-51
2022/01/08 13:21:36;;;;;;;8.95;2.30;;;8.70;99.90;;;;;;5053694;28;20471;-53
2022/01/08 13:24:11;;;;;;;2.83;1.75;;;8.80;99.90;;;;;;5054018;28;20066;-51
2022/01/08 13:26:40;;;;;;;4.80;1.30;;;8.80;99.90;;;;;;5035913;28;20025;-51
2022/01/08 13:29:24;;;;;;;7.20;1.75;;;8.80;99.90;;;;;;5036448;28;20040;-51
2022/01/08 13:32:04;;;;;;;4.90;1.70;;;8.40;99.90;;;;;;5035996;28;20402;-53
2022/01/08 13:34:50;;;;;;;5.95;2.10;;;8.00;99.90;;;;;;5035601;28;20028;-50
2022/01/08 13:37:21;;;;;;;4.35;1.75;;;7.90;99.90;;;;;;5030508;28;20024;-55
2022/01/08 13:39:56;;;;;;;5.97;2.00;;;8.10;99.90;;;;;;5015658;28;20460;-53